Time;durP1;ratioP1;P1;durP2;ratioP2;P2;SDS_P1;SDS_P2;PMS_P1;PMS_P2;Temp;Humidity;BMP_temperature;BMP_pressure;BME280_temperature;BME280_humidity;BME280_pressure;Samples;Min_cycle;Max_cycle;Signal;HPM_P1;HPM_P2
2021/07/20 00:00:12;;;;;;;18.60;8.78;;;;;;;18.44;100.00;99620.30;1686465;85;21065;-76
2021/07/20 00:02:54;;;;;;;20.32;9.30;;;;;;;18.43;100.00;99617.28;1758733;80;20997;-78
2021/07/20 00:05:23;;;;;;;22.55;9.08;;;;;;;18.42;100.00;99610.23;1769397;80;21045;-76
2021/07/20 00:07:53;;;;;;;17.57;10.53;;;;;;;18.42;100.00;99608.06;1778395;80;22081;-77
2021/07/20 00:10:28;;;;;;;27.42;10.53;;;;;;;18.40;100.00;99602.88;1778450;80;21107;-76
2021/07/20 00:12:55;;;;;;;17.65;8.70;;;;;;;18.40;100.00;99607.33;1766544;80;21013;-75
2021/07/20 00:15:22;;;;;;;23.25;9.60;;;;;;;18.37;100.00;99602.25;1747737;82;21041;-75
2021/07/20 00:17:50;;;;;;;20.37;8.00;;;;;;;18.37;100.00;99602.25;1748314;82;21017;-77
2021/07/20 00:20:21;;;;;;;19.52;8.25;;;;;;;18.37;100.00;99599.58;1750859;82;21178;-76
2021/07/20 00:22:49;;;;;;;18.27;9.30;;;;;;;18.38;100.00;99598.60;1751113;81;21000;-76
2021/07/20 00:25:16;;;;;;;17.62;7.28;;;;;;;18.37;100.00;99595.09;1772113;80;21069;-79
2021/07/20 00:27:43;;;;;;;19.15;8.83;;;;;;;18.38;100.00;99595.94;1776622;80;21109;-78
2021/07/20 00:30:12;;;;;;;18.07;8.75;;;;;;;18.35;100.00;99594.85;1778255;80;21029;-79
2021/07/20 00:32:39;;;;;;;19.42;7.00;;;;;;;18.32;100.00;99599.09;1778574;80;21128;-79
2021/07/20 00:35:08;;;;;;;27.07;9.38;;;;;;;18.32;100.00;99596.44;1777636;80;21128;-77
2021/07/20 00:37:36;;;;;;;17.05;7.10;;;;;;;18.24;100.00;99596.55;1778385;80;21536;-75
2021/07/20 00:40:09;;;;;;;28.52;9.93;;;;;;;18.28;100.00;99593.14;1778594;80;21132;-77
2021/07/20 00:42:37;;;;;;;25.60;9.53;;;;;;;18.32;100.00;99593.77;1778553;80;21013;-74
2021/07/20 00:45:05;;;;;;;22.37;8.80;;;;;;;18.30;100.00;99593.88;1765724;80;21183;-74
2021/07/20 00:47:32;;;;;;;17.62;8.73;;;;;;;18.30;100.00;99598.36;1747372;82;21496;-73
2021/07/20 00:50:01;;;;;;;16.30;8.28;;;;;;;18.30;100.00;99595.70;1747565;82;21028;-73
2021/07/20 00:52:30;;;;;;;16.35;7.90;;;;;;;18.29;100.00;99592.65;1747763;82;21044;-75
2021/07/20 00:54:57;;;;;;;23.55;9.70;;;;;;;18.29;100.00;99600.65;1747684;82;21578;-74
2021/07/20 00:57:25;;;;;;;16.23;7.60;;;;;;;18.28;100.00;99599.80;1766971;80;21113;-75
2021/07/20 00:59:54;;;;;;;24.72;9.70;;;;;;;18.32;100.00;99593.77;1778416;80;21913;-77
2021/07/20 01:02:21;;;;;;;17.12;8.48;;;;;;;18.33;100.00;99598.12;1725514;82;21068;-75
2021/07/20 01:04:48;;;;;;;17.55;8.83;;;;;;;18.34;100.00;99605.16;1718358;82;21041;-75
2021/07/20 01:07:18;;;;;;;15.40;9.33;;;;;;;18.34;100.00;99600.67;1747538;82;21068;-76
2021/07/20 01:09:46;;;;;;;17.17;7.10;;;;;;;18.35;100.00;99605.52;1747648;82;21212;-79
2021/07/20 01:12:16;;;;;;;20.62;10.48;;;;;;;18.33;100.00;99603.45;1745842;80;21035;-81
2021/07/20 01:14:45;;;;;;;20.17;11.10;;;;;;;18.29;100.00;99593.52;1778555;80;21072;-81
2021/07/20 01:17:12;;;;;;;25.10;10.00;;;;;;;18.24;100.00;99595.67;1778942;80;21061;-82
2021/07/20 01:19:53;;;;;;;19.65;10.18;;;;;;;18.24;100.00;99593.88;1775540;80;21067;-79
2021/07/20 01:22:25;;;;;;;20.75;10.58;;;;;;;18.26;100.00;99591.56;1718725;82;21095;-81
2021/07/20 01:24:53;;;;;;;20.55;8.53;;;;;;;18.23;100.00;99601.50;1748038;82;21583;-81
2021/07/20 01:27:20;;;;;;;21.10;9.58;;;;;;;18.26;100.00;99596.90;1747891;82;21053;-81
2021/07/20 01:29:48;;;;;;;18.37;9.73;;;;;;;18.24;100.00;99592.55;1748217;82;21100;-80
2021/07/20 01:32:15;;;;;;;24.23;9.98;;;;;;;18.26;100.00;99595.56;1719615;80;21021;-78
2021/07/20 01:34:43;;;;;;;23.47;10.80;;;;;;;18.24;100.00;99595.22;1747685;82;21133;-79
2021/07/20 01:37:12;;;;;;;13.50;7.85;;;;;;;18.25;100.00;99594.72;1751193;80;20998;-77
2021/07/20 01:39:41;;;;;;;19.42;10.38;;;;;;;18.20;100.00;99588.42;1778696;80;21017;-76
2021/07/20 01:42:10;;;;;;;19.73;9.98;;;;;;;18.23;100.00;99598.83;1778704;80;21017;-79
2021/07/20 01:44:38;;;;;;;21.60;10.28;;;;;;;18.23;100.00;99601.50;1778419;80;21097;-78
2021/07/20 01:47:05;;;;;;;21.75;9.68;;;;;;;18.22;100.00;99597.14;1778424;80;21710;-78
2021/07/20 01:49:32;;;;;;;18.02;7.55;;;;;;;18.21;100.00;99598.09;1778388;80;21674;-77
2021/07/20 01:52:01;;;;;;;19.50;9.30;;;;;;;18.19;100.00;99600.02;1777011;80;21486;-78
2021/07/20 01:54:29;;;;;;;15.03;8.28;;;;;;;18.21;100.00;99610.09;1778374;80;21049;-78
2021/07/20 01:56:57;;;;;;;11.90;6.90;;;;;;;18.17;100.00;99615.28;1748042;80;21001;-79
2021/07/20 01:59:26;;;;;;;23.45;11.05;;;;;;;18.18;100.00;99610.34;1773955;80;21611;-79
2021/07/20 02:02:34;;;;;;;20.53;10.43;;;;;;;18.14;100.00;99610.20;1776946;80;21064;-79
2021/07/20 02:04:49;;;;;;;24.02;12.63;;;;;;;18.14;100.00;99594.21;1766836;80;21041;-78
2021/07/20 02:09:55;;;;;;;19.67;12.07;;;;;;;18.12;100.00;99585.97;1779180;80;21567;-81
2021/07/20 02:12:39;;;;;;;25.82;11.93;;;;;;;18.10;100.00;99592.73;1773394;80;21726;-79
2021/07/20 02:15:08;;;;;;;22.90;10.65;;;;;;;18.11;100.00;99600.27;1745693;82;21060;-80
2021/07/20 02:17:49;;;;;;;17.50;10.60;;;;;;;18.10;100.00;99607.39;1745656;82;21473;-79
2021/07/20 02:20:22;;;;;;;19.70;10.72;;;;;;;18.07;100.00;99596.98;1747713;82;21053;-80
2021/07/20 02:22:56;;;;;;;25.32;12.13;;;;;;;18.06;100.00;99602.42;1750833;81;21044;-81
2021/07/20 02:25:29;;;;;;;27.40;11.75;;;;;;;18.05;100.00;99604.73;1753252;81;21781;-79
2021/07/20 02:27:58;;;;;;;23.50;10.78;;;;;;;18.04;100.00;99602.55;1753417;81;21653;-81
2021/07/20 02:30:27;;;;;;;22.00;10.98;;;;;;;18.04;100.00;99606.55;1750571;81;21543;-82
2021/07/20 02:32:54;;;;;;;23.22;11.22;;;;;;;18.03;100.00;99608.34;1702345;81;21021;-81
2021/07/20 02:35:24;;;;;;;26.77;11.38;;;;;;;18.03;100.00;99612.83;1753560;81;21037;-79
2021/07/20 02:37:54;;;;;;;19.48;10.90;;;;;;;18.05;100.00;99611.39;1753607;81;26625;-82
2021/07/20 02:40:23;;;;;;;19.20;10.13;;;;;;;18.08;100.00;99609.33;1726110;81;21100;-82
2021/07/20 02:42:52;;;;;;;19.00;11.48;;;;;;;18.09;100.00;99607.05;1770335;80;21028;-82
2021/07/20 02:45:19;;;;;;;23.15;11.43;;;;;;;18.11;100.00;99606.45;1760395;80;21029;-82
2021/07/20 02:47:49;;;;;;;26.77;12.47;;;;;;;18.12;100.00;99596.14;1717546;83;21022;-84
2021/07/20 02:50:18;;;;;;;24.02;11.95;;;;;;;18.13;100.00;99596.52;1709126;83;21120;-83
2021/07/20 02:52:47;;;;;;;19.92;11.43;;;;;;;18.16;100.00;99599.43;1720797;82;20991;-84
2021/07/20 02:55:17;;;;;;;26.87;12.37;;;;;;;18.18;100.00;99601.01;1720894;82;21074;-83
2021/07/20 02:57:46;;;;;;;20.17;11.83;;;;;;;18.23;100.00;99607.31;1729087;82;21245;-76
2021/07/20 03:00:15;;;;;;;18.12;12.58;;;;;;;18.28;100.00;99605.63;1728963;82;21010;-76
2021/07/20 03:02:49;;;;;;;24.27;12.90;;;;;;;18.35;100.00;99605.52;1729050;82;21161;-75
2021/07/20 03:05:18;;;;;;;23.62;12.15;;;;;;;18.44;100.00;99604.80;1728665;82;21096;-75
2021/07/20 03:07:58;;;;;;;21.60;12.93;;;;;;;18.50;100.00;99607.48;1729168;83;21057;-72
2021/07/20 03:10:31;;;;;;;19.20;13.05;;;;;;;18.55;100.00;99607.47;1710215;83;21057;-73
2021/07/20 03:13:03;;;;;;;30.62;13.48;;;;;;;18.63;100.00;99613.06;1716596;83;21603;-73
2021/07/20 03:15:32;;;;;;;28.15;14.28;;;;;;;18.72;100.00;99609.30;1698806;84;21151;-73
2021/07/20 03:18:01;;;;;;;15.38;10.18;;;;;;;18.78;100.00;99609.69;1715590;83;21089;-73
2021/07/20 03:20:30;;;;;;;19.30;8.75;;;;;;;18.85;100.00;99608.23;1711892;83;22065;-73
2021/07/20 03:22:58;;;;;;;22.27;12.07;;;;;;;18.92;100.00;99612.59;1725359;82;21010;-71
2021/07/20 03:25:26;;;;;;;18.55;9.93;;;;;;;19.00;100.00;99618.17;1712149;82;21647;-73
2021/07/20 03:27:54;;;;;;;17.50;11.03;;;;;;;19.13;100.00;99627.86;1710206;82;21575;-74
2021/07/20 03:30:26;;;;;;;19.35;11.80;;;;;;;19.21;100.00;99624.06;1704091;83;21109;-82
2021/07/20 03:32:52;;;;;;;19.95;6.97;;;;;;;19.28;100.00;99619.95;1722408;82;21069;-81
2021/07/20 03:35:32;;;;;;;17.87;10.20;;;;;;;19.37;100.00;99623.20;1714123;82;21089;-83
2021/07/20 03:38:00;;;;;;;24.52;11.00;;;;;;;19.43;100.00;99613.33;1734714;82;21124;-81
2021/07/20 03:40:28;;;;;;;22.32;11.78;;;;;;;19.48;100.00;99611.13;1703268;83;21568;-81
2021/07/20 03:42:56;;;;;;;21.10;12.55;;;;;;;19.55;100.00;99613.30;1714826;82;21104;-78
2021/07/20 03:45:24;;;;;;;22.30;11.20;;;;;;;19.62;100.00;99618.49;1737487;82;21097;-77
2021/07/20 03:47:53;;;;;;;23.27;14.10;;;;;;;19.71;100.00;99611.08;1714140;82;21050;-77
2021/07/20 03:50:42;;;;;;;22.25;12.98;;;;;;;19.85;100.00;99613.47;1746570;82;21141;-76
2021/07/20 03:53:09;;;;;;;18.12;10.65;;;;;;;20.04;100.00;99614.59;1750292;82;21509;-77
2021/07/20 03:55:36;;;;;;;21.30;14.30;;;;;;;20.22;100.00;99615.70;1747161;82;21042;-77
2021/07/20 03:58:05;;;;;;;19.27;14.43;;;;;;;20.48;100.00;99624.64;1720013;83;21097;-77
2021/07/20 04:00:32;;;;;;;24.47;15.28;;;;;;;20.77;100.00;99619.94;1723208;82;21097;-77
2021/07/20 04:06:08;;;;;;;19.70;14.50;;;;;;;21.39;100.00;99624.20;1733034;82;21876;-78
2021/07/20 04:08:37;;;;;;;22.58;14.60;;;;;;;21.67;99.99;99616.37;1728406;82;21130;-77
2021/07/20 04:11:05;;;;;;;20.72;13.80;;;;;;;21.90;99.66;99618.27;1721113;82;21144;-76
2021/07/20 04:13:36;;;;;;;17.62;11.38;;;;;;;22.17;98.74;99616.20;1718534;82;22108;-76
2021/07/20 04:16:12;;;;;;;16.60;12.18;;;;;;;22.53;97.12;99614.60;1728431;82;21049;-77
2021/07/20 04:18:40;;;;;;;19.67;12.85;;;;;;;22.93;95.95;99605.89;1741444;82;21532;-78
2021/07/20 04:21:08;;;;;;;16.25;12.00;;;;;;;23.30;94.18;99613.06;1727417;82;21084;-75
2021/07/20 04:23:36;;;;;;;18.25;12.18;;;;;;;23.54;91.99;99617.36;1723560;82;21097;-75
2021/07/20 04:26:07;;;;;;;17.02;11.57;;;;;;;23.76;91.08;99624.14;1748127;82;21076;-76
2021/07/20 04:28:36;;;;;;;19.50;12.33;;;;;;;24.03;87.45;99625.89;1722136;82;21103;-76
2021/07/20 04:31:05;;;;;;;15.98;11.48;;;;;;;24.38;87.22;99617.91;1720043;82;21134;-76
2021/07/20 04:33:34;;;;;;;15.53;11.33;;;;;;;24.53;85.83;99618.22;1702080;82;21088;-78
2021/07/20 04:36:20;;;;;;;15.13;10.58;;;;;;;24.68;84.66;99626.03;1736389;82;21110;-78
2021/07/20 04:38:49;;;;;;;13.95;11.00;;;;;;;24.95;83.38;99620.11;1720135;83;21105;-78
2021/07/20 04:41:19;;;;;;;17.50;9.95;;;;;;;25.15;82.58;99615.31;1707757;82;21067;-77
2021/07/20 04:43:47;;;;;;;14.80;10.08;;;;;;;25.27;79.79;99622.95;1701997;82;21177;-77
2021/07/20 04:46:17;;;;;;;12.82;10.28;;;;;;;25.42;79.91;99627.70;1739603;82;21062;-77
2021/07/20 04:48:45;;;;;;;16.45;9.35;;;;;;;25.61;77.03;99622.02;1739339;82;21110;-78
2021/07/20 04:51:17;;;;;;;13.83;9.80;;;;;;;25.88;74.68;99632.17;1719281;82;21043;-78
2021/07/20 04:53:44;;;;;;;12.35;10.98;;;;;;;26.20;74.34;99631.33;1721914;82;21023;-77
2021/07/20 04:56:12;;;;;;;19.60;10.30;;;;;;;26.48;73.71;99633.17;1721318;82;21190;-79
2021/07/20 04:58:41;;;;;;;16.17;10.08;;;;;;;26.77;73.73;99630.42;1720170;83;21076;-78
2021/07/20 05:01:08;;;;;;;9.43;8.43;;;;;;;27.08;71.40;99618.81;1710396;82;21089;-76
2021/07/20 05:03:36;;;;;;;16.57;9.85;;;;;;;27.32;67.58;99611.97;1720746;82;21128;-76
2021/07/20 05:06:04;;;;;;;12.47;8.88;;;;;;;27.56;69.29;99610.13;1725869;82;21089;-76
2021/07/20 05:08:34;;;;;;;14.58;8.58;;;;;;;27.83;66.43;99610.97;1735131;82;22171;-77
2021/07/20 05:11:01;;;;;;;16.75;10.32;;;;;;;28.08;64.15;99614.84;1730789;82;21529;-77
2021/07/20 05:13:30;;;;;;;16.62;10.23;;;;;;;28.20;65.38;99617.42;1739079;82;21579;-78
2021/07/20 05:15:59;;;;;;;17.65;10.75;;;;;;;28.39;62.17;99620.63;1695830;83;21035;-77
2021/07/20 05:18:28;;;;;;;;;;;;;;;28.51;64.10;99617.84;1732650;82;21679;-76
2021/07/20 05:20:58;;;;;;;17.48;10.00;;;;;;;28.54;63.53;99620.17;1724983;82;21085;-77
2021/07/20 05:23:26;;;;;;;16.70;10.75;;;;;;;28.52;63.64;99625.45;1712039;82;21046;-78
2021/07/20 05:25:58;;;;;;;16.20;8.15;;;;;;;28.72;62.75;99621.69;1717690;83;21093;-77
2021/07/20 05:28:28;;;;;;;12.65;8.00;;;;;;;28.86;61.18;99634.39;1694345;83;21044;-76
2021/07/20 05:30:56;;;;;;;14.78;9.33;;;;;;;29.00;61.72;99628.63;1695450;83;21079;-77
2021/07/20 05:33:24;;;;;;;13.32;8.65;;;;;;;29.20;60.32;99631.64;1701558;83;21110;-76
2021/07/20 05:35:58;;;;;;;14.23;9.08;;;;;;;29.35;59.55;99627.00;1702042;83;21986;-77
2021/07/20 05:38:26;;;;;;;15.95;8.75;;;;;;;29.38;57.00;99624.42;1756519;80;21646;-77
2021/07/20 05:40:57;;;;;;;18.95;9.75;;;;;;;29.25;57.32;99625.13;1748419;80;21073;-77
2021/07/20 05:43:26;;;;;;;13.25;8.80;;;;;;;29.19;57.02;99625.88;1756304;80;21074;-77
2021/07/20 05:46:00;;;;;;;12.40;9.40;;;;;;;29.25;57.18;99629.19;1753709;80;21127;-77
2021/07/20 05:48:28;;;;;;;12.73;8.35;;;;;;;29.33;56.30;99622.28;1759318;80;21011;-78
2021/07/20 05:51:00;;;;;;;22.87;9.10;;;;;;;29.42;57.34;99619.77;1762874;80;21037;-77
2021/07/20 05:53:28;;;;;;;14.50;8.50;;;;;;;29.68;56.00;99617.91;1778698;80;21009;-78
2021/07/20 05:56:01;;;;;;;12.55;8.73;;;;;;;29.99;54.17;99622.16;1749283;80;21531;-77
2021/07/20 05:58:28;;;;;;;9.85;8.30;;;;;;;30.29;53.46;99622.86;1778483;80;21085;-77
2021/07/20 06:01:00;;;;;;;15.65;8.63;;;;;;;30.47;52.36;99628.32;1778228;80;21056;-76
2021/07/20 06:03:27;;;;;;;19.02;8.90;;;;;;;30.61;51.43;99626.01;1760695;80;21029;-78
2021/07/20 06:05:56;;;;;;;12.37;7.35;;;;;;;30.65;50.54;99624.58;1747911;82;21032;-79
2021/07/20 06:08:24;;;;;;;9.53;7.33;;;;;;;30.69;48.78;99626.36;1748224;82;21520;-78
2021/07/20 06:10:55;;;;;;;15.68;8.70;;;;;;;30.91;47.90;99616.28;1708143;83;21107;-78
2021/07/20 06:13:28;;;;;;;15.03;8.75;;;;;;;31.21;48.02;99618.19;1696163;83;21053;-78
2021/07/20 06:15:55;;;;;;;10.95;8.00;;;;;;;31.35;48.35;99618.53;1718405;82;22198;-77
2021/07/20 06:18:22;;;;;;;15.45;8.20;;;;;;;31.44;47.87;99616.51;1762502;80;21005;-76
2021/07/20 06:20:54;;;;;;;16.23;8.90;;;;;;;31.43;47.04;99613.48;1778489;80;21088;-78
2021/07/20 06:23:21;;;;;;;18.05;8.23;;;;;;;31.32;47.20;99609.97;1773342;80;21129;-79
2021/07/20 06:25:50;;;;;;;12.20;7.62;;;;;;;31.26;47.65;99616.21;1775778;80;21446;-78
2021/07/20 06:28:17;;;;;;;16.77;7.90;;;;;;;31.33;46.86;99607.55;1688953;83;21176;-77
2021/07/20 06:30:44;;;;;;;14.13;8.35;;;;;;;31.44;44.57;99611.59;1701295;83;21361;-77
2021/07/20 06:33:13;;;;;;;11.83;8.25;;;;;;;31.42;44.95;99610.43;1774110;80;21080;-78
2021/07/20 06:35:43;;;;;;;14.23;8.40;;;;;;;31.40;45.91;99610.30;1778425;80;21132;-78
2021/07/20 06:38:18;;;;;;;14.58;8.68;;;;;;;31.43;46.48;99603.97;1778578;80;21021;-76
2021/07/20 06:40:47;;;;;;;11.40;7.15;;;;;;;31.62;46.51;99602.85;1778516;80;21169;-79
2021/07/20 06:43:16;;;;;;;22.98;8.53;;;;;;;31.69;43.44;99606.42;1778605;80;21040;-78
2021/07/20 06:45:46;;;;;;;22.17;7.90;;;;;;;31.73;44.03;99598.99;1778518;80;21022;-79
2021/07/20 06:48:14;;;;;;;15.60;7.80;;;;;;;31.98;43.28;99597.89;1778350;80;21116;-78
2021/07/20 06:50:42;;;;;;;17.25;7.40;;;;;;;32.31;40.98;99591.58;1760358;80;21108;-77
2021/07/20 06:53:14;;;;;;;16.35;7.85;;;;;;;32.60;40.91;99581.27;1700770;83;21104;-78
2021/07/20 06:55:51;;;;;;;11.68;7.62;;;;;;;32.78;40.50;99588.27;1683449;85;21086;-78
2021/07/20 06:58:20;;;;;;;14.60;7.80;;;;;;;32.92;40.83;99591.80;1696696;83;21051;-76
2021/07/20 07:00:52;;;;;;;9.73;6.90;;;;;;;33.13;40.36;99592.05;1764927;80;21125;-79
2021/07/20 07:03:21;;;;;;;19.70;8.68;;;;;;;33.32;39.51;99587.53;1697608;83;21054;-77
2021/07/20 07:05:48;;;;;;;15.00;7.47;;;;;;;33.57;38.95;99587.63;1705243;83;21062;-78
2021/07/20 07:08:15;;;;;;;20.02;8.60;;;;;;;33.62;39.04;99593.25;1693956;83;21105;-78
2021/07/20 07:10:43;;;;;;;21.42;9.13;;;;;;;33.57;38.02;99594.45;1709722;83;21082;-79
2021/07/20 07:13:10;;;;;;;27.32;8.75;;;;;;;33.49;38.60;99601.48;1669541;85;21175;-77
2021/07/20 07:15:38;;;;;;;15.95;9.20;;;;;;;33.44;38.68;99593.12;1687558;83;21132;-79
2021/07/20 07:18:05;;;;;;;20.23;8.18;;;;;;;33.34;38.53;99595.51;1709982;82;21586;-77
2021/07/20 07:20:32;;;;;;;16.37;8.00;;;;;;;33.27;39.77;99597.41;1764945;80;21029;-80
2021/07/20 07:23:00;;;;;;;22.65;8.08;;;;;;;33.54;38.97;99609.84;1760772;80;21580;-78
2021/07/20 07:25:27;;;;;;;16.75;7.03;;;;;;;33.88;38.13;99610.50;1761339;80;21050;-79
2021/07/20 07:27:55;;;;;;;13.20;7.53;;;;;;;34.01;36.54;99604.94;1761762;80;21100;-74
2021/07/20 07:30:22;;;;;;;15.18;8.00;;;;;;;34.19;37.56;99608.83;1752992;80;21060;-77
2021/07/20 07:32:49;;;;;;;14.93;7.10;;;;;;;34.51;36.88;99605.98;1766560;80;21061;-75
2021/07/20 07:35:16;;;;;;;18.55;7.00;;;;;;;34.81;35.67;99608.83;1772714;80;21028;-74
2021/07/20 07:37:43;;;;;;;27.17;8.18;;;;;;;35.11;36.00;99608.95;1758408;79;21536;-75
2021/07/20 07:40:11;;;;;;;14.60;7.60;;;;;;;35.19;35.26;99614.63;1766876;80;21052;-74
2021/07/20 07:42:38;;;;;;;14.58;8.08;;;;;;;35.07;34.79;99610.44;1769529;80;21049;-75
2021/07/20 07:45:08;;;;;;;14.03;7.40;;;;;;;35.01;35.43;99603.13;1758591;80;21086;-75
2021/07/20 07:47:36;;;;;;;14.87;7.65;;;;;;;35.08;34.98;99599.78;1759427;80;21064;-75
2021/07/20 07:50:05;;;;;;;22.35;7.83;;;;;;;35.09;35.81;99601.47;1732662;80;21182;-74
2021/07/20 07:52:35;;;;;;;14.93;8.23;;;;;;;35.11;35.10;99595.27;1763812;80;21571;-77
2021/07/20 07:55:02;;;;;;;13.88;8.80;;;;;;;35.11;35.38;99595.27;1752714;80;21629;-75
2021/07/20 07:57:29;;;;;;;15.40;7.70;;;;;;;34.84;36.12;99596.91;1771841;79;21599;-75
2021/07/20 07:59:58;;;;;;;16.02;8.40;;;;;;;34.54;35.19;99598.17;1771484;80;22591;-76
2021/07/20 08:02:30;;;;;;;21.27;8.38;;;;;;;34.50;36.80;99594.22;1758736;80;21127;-80
2021/07/20 08:05:00;;;;;;;13.35;7.58;;;;;;;34.39;36.21;99587.58;1773892;79;21013;-78
2021/07/20 08:07:27;;;;;;;15.25;8.15;;;;;;;34.30;36.07;99587.57;1754786;80;21540;-80
2021/07/20 08:09:55;;;;;;;18.52;8.90;;;;;;;34.24;36.80;99581.66;1748628;80;21026;-79
2021/07/20 08:12:21;;;;;;;15.65;9.15;;;;;;;34.22;36.42;99578.31;1766926;80;21079;-80
2021/07/20 08:14:48;;;;;;;11.45;8.20;;;;;;;34.14;37.00;99577.22;1769518;80;21113;-80
2021/07/20 08:17:16;;;;;;;13.28;8.53;;;;;;;33.95;36.85;99577.14;1758467;80;21559;-80
2021/07/20 08:19:44;;;;;;;14.83;8.33;;;;;;;33.96;36.03;99577.46;1764935;80;21083;-80
2021/07/20 08:22:14;;;;;;;16.67;8.50;;;;;;;34.12;37.59;99577.97;1759708;80;21068;-79
2021/07/20 08:24:47;;;;;;;15.93;8.08;;;;;;;34.23;36.56;99585.44;1739247;80;21053;-80
2021/07/20 08:27:30;;;;;;;15.05;8.05;;;;;;;34.25;36.33;99587.42;1767071;80;21149;-81
2021/07/20 08:29:57;;;;;;;20.20;8.38;;;;;;;34.14;36.26;99586.28;1778084;80;21513;-80
2021/07/20 08:32:25;;;;;;;14.87;8.33;;;;;;;34.24;34.71;99587.13;1783199;80;21080;-79
2021/07/20 08:35:03;;;;;;;12.50;8.05;;;;;;;34.41;35.58;99586.83;1756826;81;21107;-79
2021/07/20 08:37:33;;;;;;;21.93;8.83;;;;;;;34.50;35.96;99586.02;1765519;80;21524;-83
2021/07/20 08:40:02;;;;;;;32.98;9.45;;;;;;;34.52;36.24;99596.73;1781260;80;21714;-82
2021/07/20 08:43:14;;;;;;;12.75;8.08;;;;;;;34.64;35.29;99590.84;1784756;80;21037;-83
2021/07/20 08:46:01;;;;;;;14.63;8.40;;;;;;;34.55;35.26;99592.17;1782894;80;21127;-83
2021/07/20 08:48:51;;;;;;;11.65;7.55;;;;;;;34.33;33.87;99591.23;1760779;80;21087;-82
2021/07/20 08:51:59;;;;;;;14.45;9.15;;;;;;;34.28;35.46;99593.82;1680281;83;21065;-81
2021/07/20 08:54:33;;;;;;;13.78;9.05;;;;;;;34.11;36.15;99589.44;1765913;80;21282;-83
2021/07/20 08:57:04;;;;;;;12.20;8.30;;;;;;;33.90;35.70;99589.27;1774478;80;21559;-81
2021/07/20 08:59:50;;;;;;;17.25;9.13;;;;;;;33.73;36.45;99582.66;1766835;78;21138;-77
2021/07/20 09:02:31;;;;;;;14.55;8.43;;;;;;;33.89;37.64;99578.55;1758092;80;21013;-77
2021/07/20 09:05:19;;;;;;;14.50;8.08;;;;;;;34.23;37.10;99579.97;1776565;80;21144;-76
2021/07/20 09:08:10;;;;;;;15.43;9.43;;;;;;;34.72;35.92;99583.71;1772599;80;21570;-76
2021/07/20 09:11:12;;;;;;;15.98;9.93;;;;;;;34.74;35.52;99578.86;1775833;80;21108;-77
2021/07/20 09:13:44;;;;;;;14.43;8.50;;;;;;;34.83;35.49;99572.02;1761980;80;21035;-77
2021/07/20 09:16:20;;;;;;;19.30;8.83;;;;;;;34.90;36.29;99571.90;1759205;80;21046;-75
2021/07/20 09:18:52;;;;;;;14.28;8.30;;;;;;;34.74;35.75;99562.95;1758484;80;21091;-76
2021/07/20 09:21:20;;;;;;;26.37;8.83;;;;;;;34.91;35.21;99559.08;1772219;80;22180;-78
2021/07/20 09:23:53;;;;;;;15.90;8.15;;;;;;;34.90;34.62;99560.95;1769200;79;20989;-81
2021/07/20 09:26:22;;;;;;;14.13;8.20;;;;;;;34.70;34.90;99554.39;1773833;80;21466;-78
2021/07/20 09:29:12;;;;;;;17.82;8.03;;;;;;;34.31;35.84;99552.36;1781144;80;20953;-79
2021/07/20 09:32:07;;;;;;;12.93;8.03;;;;;;;33.98;36.22;99556.23;1759925;79;21538;-80
2021/07/20 09:35:04;;;;;;;20.10;8.65;;;;;;;34.21;36.88;99546.56;1764152;80;21124;-79
2021/07/20 09:40:04;;;;;;;14.87;8.15;;;;;;;35.04;35.07;99543.33;1800727;79;22550;-81
2021/07/20 09:43:06;;;;;;;11.40;8.78;;;;;;;35.17;35.74;99547.80;1727031;82;21057;-78
2021/07/20 09:45:42;;;;;;;18.90;8.15;;;;;;;35.10;35.11;99547.03;1752535;81;21572;-80
2021/07/20 09:48:48;;;;;;;15.98;8.60;;;;;;;34.54;35.17;99544.03;1722704;83;21086;-80
2021/07/20 09:51:48;;;;;;;13.75;7.50;;;;;;;34.18;36.06;99547.02;1719810;82;21044;-80
2021/07/20 09:54:45;;;;;;;14.67;7.63;;;;;;;33.74;36.75;99543.40;1709984;82;21106;-81
2021/07/20 09:57:52;;;;;;;9.15;6.83;;;;;;;33.46;36.59;99550.08;1707743;83;21006;-81
2021/07/20 10:00:31;;;;;;;12.35;7.50;;;;;;;33.43;35.58;99550.53;1695315;83;21164;-80
2021/07/20 10:03:14;;;;;;;13.72;7.80;;;;;;;33.59;36.99;99549.16;1690505;83;21010;-81
2021/07/20 10:05:58;;;;;;;19.92;8.13;;;;;;;33.83;37.37;99546.16;1703159;83;21075;-82
2021/07/20 10:08:50;;;;;;;12.53;9.10;;;;;;;34.10;35.63;99541.87;1710993;83;21130;-81
2021/07/20 10:11:45;;;;;;;13.58;7.62;;;;;;;34.28;35.30;99530.97;1704003;83;21034;-80
2021/07/20 10:14:44;;;;;;;12.65;6.72;;;;;;;34.74;35.59;99534.23;1717926;83;22015;-80
2021/07/20 10:17:45;;;;;;;10.50;6.90;;;;;;;35.07;35.23;99531.09;1692581;83;21220;-81
2021/07/20 10:20:22;;;;;;;10.03;6.37;;;;;;;35.10;34.65;99523.77;1700350;83;21553;-81
2021/07/20 10:23:16;;;;;;;13.03;6.90;;;;;;;34.88;35.54;99523.45;1695617;83;21062;-81
2021/07/20 10:26:05;;;;;;;16.75;7.12;;;;;;;34.33;35.92;99531.11;1699253;83;21181;-80
2021/07/20 10:28:43;;;;;;;11.57;6.90;;;;;;;33.63;35.86;99523.93;1695259;83;21154;-82
2021/07/20 10:31:16;;;;;;;12.43;7.03;;;;;;;33.45;37.22;99515.64;1710769;83;21419;-81
2021/07/20 10:34:07;;;;;;;14.80;7.22;;;;;;;33.38;37.35;99512.98;1702234;83;21113;-82
2021/07/20 10:36:47;;;;;;;12.33;6.87;;;;;;;33.42;37.85;99519.65;1700074;83;21124;-81
2021/07/20 10:39:21;;;;;;;11.15;7.30;;;;;;;33.50;36.45;99507.64;1687519;83;22201;-82
2021/07/20 10:42:06;;;;;;;11.78;6.90;;;;;;;33.55;37.57;99514.64;1700896;83;21184;-81
2021/07/20 10:45:05;;;;;;;12.40;7.42;;;;;;;33.79;36.04;99514.89;1698734;82;21103;-82
2021/07/20 10:47:40;;;;;;;10.05;6.60;;;;;;;34.14;34.37;99496.62;1693583;83;21597;-81
2021/07/20 10:50:28;;;;;;;12.47;7.20;;;;;;;34.34;35.09;99494.51;1687181;83;21056;-81
2021/07/20 10:53:12;;;;;;;13.45;6.53;;;;;;;34.32;35.02;99496.63;1661161;85;21079;-81
2021/07/20 10:56:10;;;;;;;15.23;7.47;;;;;;;34.52;35.53;99488.75;1677261;84;21229;-79
2021/07/20 10:59:17;;;;;;;15.90;7.42;;;;;;;34.22;35.52;99496.34;1694501;84;21018;-79
2021/07/20 11:02:25;;;;;;;13.28;7.08;;;;;;;33.79;35.67;99497.14;1681106;84;21066;-79
2021/07/20 11:05:09;;;;;;;14.53;7.62;;;;;;;33.58;36.16;99500.56;1677940;83;21684;-81
2021/07/20 11:07:55;;;;;;;12.20;7.53;;;;;;;33.44;35.98;99501.70;1695795;81;21639;-82
2021/07/20 11:10:39;;;;;;;16.20;7.30;;;;;;;33.44;37.23;99497.61;1635222;86;22421;-84
2021/07/20 11:13:10;;;;;;;10.18;6.53;;;;;;;33.19;37.03;99491.58;1661585;82;21414;-83
2021/07/20 11:15:39;;;;;;;16.55;6.85;;;;;;;32.87;36.86;99491.22;1689599;83;21027;-80
2021/07/20 11:18:13;;;;;;;12.75;6.87;;;;;;;32.75;38.17;99494.62;1686352;83;21088;-81
2021/07/20 11:20:42;;;;;;;15.95;7.33;;;;;;;32.60;38.20;99488.59;1703664;83;21026;-85
2021/07/20 11:23:09;;;;;;;17.98;7.53;;;;;;;32.26;37.64;99489.23;1705272;83;21125;-85
2021/07/20 11:25:38;;;;;;;9.93;6.70;;;;;;;32.07;39.34;99481.92;1686329;83;21328;-86
2021/07/20 11:28:05;;;;;;;12.23;7.60;;;;;;;32.02;39.42;99473.56;1710622;83;21137;-84
2021/07/20 11:30:35;;;;;;;14.35;7.55;;;;;;;32.00;40.07;99482.46;1706971;83;21463;-88
2021/07/20 11:33:06;;;;;;;17.02;7.62;;;;;;;31.84;39.22;99476.40;1686878;85;21074;-87
2021/07/20 11:35:36;;;;;;;12.45;7.37;;;;;;;31.59;40.64;99478.06;1700268;83;21136;-86
2021/07/20 11:38:08;;;;;;;13.03;7.12;;;;;;;31.35;41.04;99477.61;1706685;83;21097;-81
2021/07/20 11:41:09;;;;;;;15.20;6.90;;;;;;;31.19;40.61;99476.64;1688991;82;21056;-81
2021/07/20 11:44:09;;;;;;;;;;;;;;;31.14;40.72;99482.17;1705128;81;21074;-81
2021/07/20 11:46:49;;;;;;;15.10;7.73;;;;;;;31.09;40.65;99477.88;1700619;82;20550;-78
2021/07/20 11:49:41;;;;;;;11.63;7.15;;;;;;;31.03;42.00;99480.59;1688672;83;21857;-75
2021/07/20 11:52:21;;;;;;;14.93;7.55;;;;;;;31.12;41.68;99481.54;1691382;82;21347;-85
2021/07/20 11:55:09;;;;;;;13.60;7.78;;;;;;;31.30;41.35;99467.34;1690698;83;21223;-83
2021/07/20 11:58:15;;;;;;;14.45;7.60;;;;;;;31.39;41.02;99463.91;1701449;82;21148;-82